createdAt,value
2018-09-27T00:00:35.756Z,2.57
2018-09-27T00:05:28.332Z,2.37
2018-09-27T00:10:20.941Z,2.30
2018-09-27T00:15:13.491Z,2.07
2018-09-27T00:20:06.252Z,2.20
2018-09-27T00:24:58.808Z,1.93
2018-09-27T00:29:51.396Z,2.13
2018-09-27T00:34:44.014Z,2.33
2018-09-27T00:39:36.546Z,2.20
2018-09-27T00:44:29.148Z,2.10
2018-09-27T00:49:21.888Z,2.23
2018-09-27T00:54:14.547Z,2.43
2018-09-27T00:59:07.199Z,2.57
2018-09-27T01:03:59.878Z,2.50
2018-09-27T01:08:53.079Z,2.47
2018-09-27T01:13:45.653Z,2.60
2018-09-27T01:18:38.169Z,2.60
2018-09-27T01:23:30.722Z,2.70
2018-09-27T01:28:23.363Z,2.90
2018-09-27T01:33:15.949Z,2.63
2018-09-27T01:38:08.538Z,3.10
2018-09-27T01:43:01.145Z,3.10
2018-09-27T01:47:53.723Z,3.10
2018-09-27T01:52:46.483Z,3.00
2018-09-27T01:57:39.053Z,3.40
2018-09-27T02:02:31.689Z,3.20
2018-09-27T02:07:24.254Z,3.50
2018-09-27T02:12:16.835Z,3.60
2018-09-27T02:17:09.425Z,3.27
2018-09-27T02:22:02.049Z,3.93
2018-09-27T02:26:54.597Z,4.00
2018-09-27T02:31:48.170Z,4.37
2018-09-27T02:36:40.754Z,3.93
2018-09-27T02:41:33.388Z,3.93
2018-09-27T02:46:26.016Z,4.07
2018-09-27T02:51:18.608Z,4.07
2018-09-27T02:56:11.240Z,4.40
2018-09-27T03:01:03.864Z,4.00
2018-09-27T03:05:56.651Z,3.77
2018-09-27T03:10:49.295Z,4.20
2018-09-27T03:15:41.867Z,4.13
2018-09-27T03:20:34.402Z,4.47
2018-09-27T03:25:27.015Z,4.40
2018-09-27T03:30:19.566Z,4.73
2018-09-27T03:35:12.131Z,4.93
2018-09-27T03:40:04.760Z,4.07
2018-09-27T03:44:57.410Z,4.47
2018-09-27T03:49:49.987Z,4.57
2018-09-27T03:54:42.568Z,4.67
2018-09-27T03:59:35.295Z,4.20
2018-09-27T04:04:28.007Z,4.27
2018-09-27T04:09:20.575Z,4.20
2018-09-27T04:14:13.174Z,4.43
2018-09-27T04:19:05.735Z,4.80
2018-09-27T04:23:58.477Z,4.57
2018-09-27T04:28:51.180Z,4.43
2018-09-27T04:33:43.898Z,4.03
2018-09-27T04:38:36.399Z,4.60
2018-09-27T04:43:29.135Z,4.13
2018-09-27T04:48:21.689Z,4.47
2018-09-27T04:53:14.267Z,4.00
2018-09-27T04:58:06.835Z,4.20
2018-09-27T05:02:59.534Z,4.20
2018-09-27T05:07:52.145Z,4.37
2018-09-27T05:12:44.759Z,4.83
2018-09-27T05:17:37.348Z,4.83
2018-09-27T05:22:29.877Z,4.40
2018-09-27T05:27:22.601Z,4.20
2018-09-27T05:32:15.148Z,4.70
2018-09-27T05:37:07.880Z,5.03
2018-09-27T05:42:00.435Z,4.50
2018-09-27T05:46:53.019Z,4.67
2018-09-27T05:51:45.575Z,4.27
2018-09-27T05:56:38.174Z,4.77
2018-09-27T06:01:30.783Z,4.47
2018-09-27T06:06:23.476Z,4.87
2018-09-27T06:11:16.061Z,4.50
2018-09-27T06:16:08.570Z,4.40
2018-09-27T06:21:01.344Z,4.43
2018-09-27T06:25:54.105Z,3.63
2018-09-27T06:30:46.684Z,4.40
2018-09-27T06:35:39.286Z,4.47
2018-09-27T06:40:31.846Z,3.97
2018-09-27T06:45:24.420Z,4.40
2018-09-27T06:50:17.012Z,4.33
2018-09-27T06:55:09.717Z,3.90
2018-09-27T07:00:02.061Z,3.80
2018-09-27T07:04:54.587Z,4.20
2018-09-27T07:09:47.272Z,3.87
2018-09-27T07:14:39.990Z,4.27
2018-09-27T07:19:32.483Z,4.00
2018-09-27T07:24:25.122Z,4.47
2018-09-27T07:29:17.800Z,3.63
2018-09-27T07:34:10.429Z,4.13
2018-09-27T07:39:04.290Z,3.90
2018-09-27T07:43:56.955Z,3.90
2018-09-27T07:53:21.504Z,4.73
2018-09-27T07:58:14.099Z,4.20
2018-09-27T08:03:06.896Z,4.17
2018-09-27T08:07:59.443Z,4.07
2018-09-27T08:12:52.110Z,4.20
2018-09-27T08:17:44.933Z,4.10
2018-09-27T08:22:37.652Z,4.70
2018-09-27T08:27:30.616Z,4.13
2018-09-27T08:32:23.430Z,4.90
2018-09-27T08:37:16.090Z,5.20
2018-09-27T08:42:08.900Z,4.80
2018-09-27T08:47:01.626Z,4.97
2018-09-27T08:51:54.277Z,5.10
2018-09-27T08:56:46.813Z,4.03
2018-09-27T09:01:39.594Z,4.50
2018-09-27T09:06:32.206Z,3.77
2018-09-27T09:11:24.840Z,3.90
2018-09-27T09:16:17.486Z,4.13
2018-09-27T09:21:10.395Z,3.37
2018-09-27T09:26:03.065Z,3.40
2018-09-27T09:30:55.755Z,3.50
2018-09-27T09:35:48.602Z,3.40
2018-09-27T09:40:41.259Z,3.27
2018-09-27T09:45:33.952Z,2.93
2018-09-27T09:50:26.634Z,2.90
2018-09-27T09:55:19.314Z,3.00
2018-09-27T10:00:12.053Z,2.50
2018-09-27T10:05:04.751Z,2.53
2018-09-27T10:09:57.608Z,2.40
2018-09-27T10:14:50.256Z,2.67
2018-09-27T10:19:42.874Z,2.70
2018-09-27T10:24:35.520Z,2.00
2018-09-27T10:29:28.215Z,2.40
2018-09-27T10:34:20.913Z,2.20
2018-09-27T10:39:13.519Z,2.37
2018-09-27T10:44:06.279Z,2.47
2018-09-27T10:48:58.938Z,2.40
2018-09-27T10:53:51.551Z,2.20
2018-09-27T10:58:44.199Z,2.40
2018-09-27T11:03:36.971Z,1.70
2018-09-27T11:08:29.639Z,1.73
2018-09-27T11:13:22.324Z,2.03
2018-09-27T11:18:14.950Z,2.17
2018-09-27T11:23:07.603Z,1.60
2018-09-27T11:28:00.198Z,2.10
2018-09-27T11:32:52.896Z,2.70
2018-09-27T11:37:45.489Z,1.37
2018-09-27T11:42:38.716Z,1.43
2018-09-27T11:47:31.395Z,1.60
2018-09-27T11:52:24.059Z,1.63
2018-09-27T11:57:16.647Z,1.60
2018-09-27T12:02:09.372Z,1.43
2018-09-27T12:12:08.689Z,1.50
2018-09-27T12:17:01.450Z,1.40
2018-09-27T12:21:54.123Z,1.30
2018-09-27T12:26:46.880Z,1.60
2018-09-27T12:31:39.571Z,1.73
2018-09-27T12:36:32.185Z,2.13
2018-09-27T12:41:24.830Z,2.00
2018-09-27T12:46:17.407Z,1.60
2018-09-27T12:51:10.172Z,1.90
2018-09-27T12:56:02.793Z,1.90
2018-09-27T13:00:55.390Z,2.13
2018-09-27T13:05:48.130Z,1.90
2018-09-27T13:10:40.911Z,2.63
2018-09-27T13:15:33.552Z,2.20
2018-09-27T13:20:26.309Z,2.50
2018-09-27T13:25:18.947Z,2.00
2018-09-27T13:30:11.764Z,2.20
2018-09-27T13:35:04.507Z,1.90
2018-09-27T13:39:57.281Z,2.40
2018-09-27T13:44:49.952Z,2.30
2018-09-27T13:49:42.664Z,2.20
2018-09-27T13:54:35.250Z,2.30
2018-09-27T13:59:27.907Z,2.40
2018-09-27T14:04:20.534Z,2.30
2018-09-27T14:09:13.272Z,2.70
2018-09-27T14:14:06.468Z,2.87
2018-09-27T14:18:59.103Z,2.70
2018-09-27T14:23:51.708Z,2.47
2018-09-27T14:28:44.311Z,2.27
2018-09-27T14:33:37.016Z,2.73
2018-09-27T14:38:29.609Z,2.47
2018-09-27T14:43:22.267Z,3.00
2018-09-27T14:48:15.515Z,3.37
2018-09-27T14:53:08.286Z,3.10
2018-09-27T14:58:00.967Z,3.20
2018-09-27T15:02:53.567Z,3.33
2018-09-27T15:07:46.199Z,3.20
2018-09-27T15:12:38.886Z,3.20
2018-09-27T15:17:31.485Z,3.37
2018-09-27T15:22:24.169Z,3.30
2018-09-27T15:27:16.791Z,3.30
2018-09-27T15:32:09.459Z,2.97
2018-09-27T15:37:02.095Z,3.30
2018-09-27T15:41:54.728Z,3.30
2018-09-27T15:46:47.420Z,3.30
2018-09-27T15:51:40.025Z,3.27
2018-09-27T15:56:32.668Z,3.53
2018-09-27T16:01:25.415Z,3.70
2018-09-27T16:06:18.053Z,3.60
2018-09-27T16:11:10.686Z,3.67
2018-09-27T16:16:03.298Z,3.73
2018-09-27T16:20:55.920Z,3.40
2018-09-27T16:25:48.823Z,3.90
2018-09-27T16:30:41.468Z,3.57
2018-09-27T16:35:34.206Z,3.30
2018-09-27T16:40:26.843Z,3.13
2018-09-27T16:45:19.464Z,3.57
2018-09-27T16:50:12.312Z,4.40
2018-09-27T16:55:05.095Z,3.73
2018-09-27T16:59:57.760Z,3.80
2018-09-27T17:04:50.453Z,4.17
2018-09-27T17:09:43.118Z,4.03
2018-09-27T17:14:35.698Z,4.23
2018-09-27T17:19:28.431Z,3.67
2018-09-27T17:24:21.278Z,3.57
2018-09-27T17:29:13.915Z,4.20
2018-09-27T17:34:07.110Z,4.33
2018-09-27T17:38:59.644Z,4.30
2018-09-27T17:43:52.288Z,4.53
2018-09-27T17:48:44.921Z,4.57
2018-09-27T17:53:37.887Z,4.13
2018-09-27T17:58:30.562Z,4.63
2018-09-27T18:03:23.271Z,4.70
2018-09-27T18:08:15.956Z,4.53
2018-09-27T18:13:08.650Z,4.40
2018-09-27T18:18:01.375Z,5.53
2018-09-27T18:22:53.983Z,4.63
2018-09-27T18:27:46.619Z,5.07
2018-09-27T18:32:39.253Z,4.97
2018-09-27T18:37:32.010Z,5.03
2018-09-27T18:42:24.663Z,5.67
2018-09-27T18:47:17.305Z,4.47
2018-09-27T18:52:09.976Z,4.40
2018-09-27T18:57:02.602Z,4.63
2018-09-27T19:01:55.190Z,4.37
2018-09-27T19:06:47.762Z,4.20
2018-09-27T19:11:40.517Z,3.87
2018-09-27T19:16:33.125Z,3.93
2018-09-27T19:21:25.828Z,4.00
2018-09-27T19:26:18.523Z,5.43
2018-09-27T19:31:11.145Z,4.83
2018-09-27T19:36:03.785Z,4.60
2018-09-27T19:40:56.353Z,4.53
2018-09-27T19:45:48.925Z,4.30
2018-09-27T19:50:41.586Z,4.30
2018-09-27T19:55:34.171Z,4.23
2018-09-27T20:00:26.709Z,3.87
2018-09-27T20:05:19.460Z,4.17
2018-09-27T20:10:12.224Z,4.03
2018-09-27T20:15:04.877Z,4.30
2018-09-27T20:19:57.482Z,4.67
2018-09-27T20:24:50.094Z,4.53
2018-09-27T20:29:42.785Z,4.70
2018-09-27T20:34:35.520Z,4.40
2018-09-27T20:39:31.289Z,4.13
2018-09-27T20:44:24.682Z,3.90
2018-09-27T20:49:17.925Z,4.47
2018-09-27T20:54:10.643Z,4.03
2018-09-27T20:59:03.306Z,3.60
2018-09-27T21:03:55.932Z,4.27
2018-09-27T21:08:48.607Z,4.13
2018-09-27T21:13:41.364Z,4.07
2018-09-27T21:18:34.029Z,4.00
2018-09-27T21:23:27.066Z,4.83
2018-09-27T21:28:19.645Z,4.40
2018-09-27T21:33:12.351Z,4.40
2018-09-27T21:38:04.931Z,4.40
2018-09-27T21:42:57.627Z,4.33
2018-09-27T21:47:50.275Z,4.70
2018-09-27T21:52:43.005Z,4.50
2018-09-27T21:57:35.749Z,4.17
2018-09-27T22:02:28.614Z,4.47
2018-09-27T22:07:21.265Z,5.07
2018-09-27T22:12:13.944Z,4.97
2018-09-27T22:17:06.665Z,4.60
2018-09-27T22:21:59.319Z,5.13
2018-09-27T22:26:51.970Z,4.47
2018-09-27T22:31:44.544Z,4.30
2018-09-27T22:36:37.137Z,4.43
2018-09-27T22:41:29.731Z,4.40
2018-09-27T22:46:22.397Z,4.50
2018-09-27T22:51:15.127Z,4.30
2018-09-27T22:56:07.773Z,4.60
2018-09-27T23:01:00.439Z,4.17
2018-09-27T23:05:53.151Z,4.87
2018-09-27T23:10:45.809Z,4.40
2018-09-27T23:15:38.575Z,4.10
2018-09-27T23:20:31.311Z,4.00
2018-09-27T23:25:24.008Z,4.00
2018-09-27T23:30:16.636Z,4.07
2018-09-27T23:35:09.234Z,4.57
2018-09-27T23:40:01.952Z,4.30
2018-09-27T23:44:54.627Z,4.03
2018-09-27T23:49:47.484Z,4.10
2018-09-27T23:54:40.116Z,4.40
2018-09-27T23:59:32.684Z,4.60
